sensor_id;sensor_type;location;lat;lon;timestamp;pressure;altitude;pressure_sealevel;temperature;humidity
11223;BME280;5668;52.012;8.724;2023-06-19T00:01:26;99656.38;;;25.38;45.06
11223;BME280;5668;52.012;8.724;2023-06-19T00:03:55;99651.66;;;25.40;45.08
11223;BME280;5668;52.012;8.724;2023-06-19T00:06:22;99654.31;;;25.40;45.34
11223;BME280;5668;52.012;8.724;2023-06-19T00:08:49;99648.41;;;25.38;44.95
11223;BME280;5668;52.012;8.724;2023-06-19T00:11:16;99644.50;;;25.40;44.66
11223;BME280;5668;52.012;8.724;2023-06-19T00:13:43;99644.09;;;25.37;44.52
11223;BME280;5668;52.012;8.724;2023-06-19T00:16:11;99633.88;;;25.34;43.86
11223;BME280;5668;52.012;8.724;2023-06-19T00:18:38;99634.94;;;25.33;44.05
11223;BME280;5668;52.012;8.724;2023-06-19T00:21:08;99635.38;;;25.30;43.58
11223;BME280;5668;52.012;8.724;2023-06-19T00:23:35;99634.56;;;25.29;43.37
11223;BME280;5668;52.012;8.724;2023-06-19T00:26:02;99646.63;;;25.32;43.57
11223;BME280;5668;52.012;8.724;2023-06-19T00:28:30;99636.78;;;25.32;43.72
11223;BME280;5668;52.012;8.724;2023-06-19T00:30:57;99633.88;;;25.34;44.01
11223;BME280;5668;52.012;8.724;2023-06-19T00:33:25;99633.88;;;25.34;44.48
11223;BME280;5668;52.012;8.724;2023-06-19T00:35:52;99623.50;;;25.32;44.26
11223;BME280;5668;52.012;8.724;2023-06-19T00:38:22;99627.59;;;25.28;44.68
11223;BME280;5668;52.012;8.724;2023-06-19T00:40:49;99624.59;;;25.25;43.97
11223;BME280;5668;52.012;8.724;2023-06-19T00:43:17;99619.69;;;25.22;44.10
11223;BME280;5668;52.012;8.724;2023-06-19T00:45:44;99626.72;;;25.16;44.29
11223;BME280;5668;52.012;8.724;2023-06-19T00:48:12;99617.69;;;25.17;44.08
11223;BME280;5668;52.012;8.724;2023-06-19T00:50:39;99620.56;;;25.16;44.54
11223;BME280;5668;52.012;8.724;2023-06-19T00:53:06;99617.75;;;25.11;44.03
11223;BME280;5668;52.012;8.724;2023-06-19T00:55:35;99610.34;;;25.13;44.24
11223;BME280;5668;52.012;8.724;2023-06-19T00:58:03;99614.66;;;25.14;44.63
11223;BME280;5668;52.012;8.724;2023-06-19T01:00:31;99608.72;;;25.12;44.47
11223;BME280;5668;52.012;8.724;2023-06-19T01:02:58;99607.13;;;25.11;44.86
11223;BME280;5668;52.012;8.724;2023-06-19T01:05:26;99599.56;;;25.08;44.57
11223;BME280;5668;52.012;8.724;2023-06-19T01:07:57;99585.06;;;25.03;44.17
11223;BME280;5668;52.012;8.724;2023-06-19T01:10:28;99580.06;;;24.95;43.99
11223;BME280;5668;52.012;8.724;2023-06-19T01:13:01;99582.53;;;24.90;44.08
11223;BME280;5668;52.012;8.724;2023-06-19T01:15:29;99578.66;;;24.86;44.25
11223;BME280;5668;52.012;8.724;2023-06-19T01:17:58;99567.56;;;24.89;44.55
11223;BME280;5668;52.012;8.724;2023-06-19T01:20:26;99567.81;;;24.88;44.57
11223;BME280;5668;52.012;8.724;2023-06-19T01:22:56;99569.25;;;24.84;44.47
11223;BME280;5668;52.012;8.724;2023-06-19T01:25:23;99569.47;;;24.82;44.48
11223;BME280;5668;52.012;8.724;2023-06-19T01:27:51;99570.34;;;24.76;44.35
11223;BME280;5668;52.012;8.724;2023-06-19T01:30:18;99579.19;;;24.70;44.77
11223;BME280;5668;52.012;8.724;2023-06-19T01:32:51;99576.19;;;24.60;45.07
11223;BME280;5668;52.012;8.724;2023-06-19T01:35:21;99574.56;;;24.59;45.20
11223;BME280;5668;52.012;8.724;2023-06-19T01:37:50;99576.38;;;24.65;45.22
11223;BME280;5668;52.012;8.724;2023-06-19T01:40:21;99574.31;;;24.67;45.25
11223;BME280;5668;52.012;8.724;2023-06-19T01:42:52;99567.97;;;24.68;45.71
11223;BME280;5668;52.012;8.724;2023-06-19T01:45:20;99577.16;;;24.72;45.53
11223;BME280;5668;52.012;8.724;2023-06-19T01:47:47;99576.69;;;24.75;45.73
11223;BME280;5668;52.012;8.724;2023-06-19T01:50:15;99577.91;;;24.79;45.38
11223;BME280;5668;52.012;8.724;2023-06-19T01:52:46;99577.69;;;24.81;45.14
11223;BME280;5668;52.012;8.724;2023-06-19T01:55:13;99579.53;;;24.80;45.00
11223;BME280;5668;52.012;8.724;2023-06-19T01:57:42;99576.41;;;24.83;44.92
11223;BME280;5668;52.012;8.724;2023-06-19T02:00:12;99570.91;;;24.85;45.88
11223;BME280;5668;52.012;8.724;2023-06-19T02:02:39;99575.19;;;24.86;46.12
11223;BME280;5668;52.012;8.724;2023-06-19T02:05:07;99573.34;;;24.86;45.82
11223;BME280;5668;52.012;8.724;2023-06-19T02:07:34;99571.09;;;24.83;45.78
11223;BME280;5668;52.012;8.724;2023-06-19T02:10:01;99575.81;;;24.81;45.51
11223;BME280;5668;52.012;8.724;2023-06-19T02:12:30;99576.88;;;24.80;45.67
11223;BME280;5668;52.012;8.724;2023-06-19T02:14:59;99573.00;;;24.76;46.05
11223;BME280;5668;52.012;8.724;2023-06-19T02:17:26;99575.06;;;24.74;46.00
11223;BME280;5668;52.012;8.724;2023-06-19T02:19:53;99574.50;;;24.72;45.97
11223;BME280;5668;52.012;8.724;2023-06-19T02:22:21;99583.28;;;24.73;46.20
11223;BME280;5668;52.012;8.724;2023-06-19T02:24:48;99576.34;;;24.72;46.53
11223;BME280;5668;52.012;8.724;2023-06-19T02:27:15;99578.59;;;24.68;46.34
11223;BME280;5668;52.012;8.724;2023-06-19T02:29:42;99586.19;;;24.64;46.83
11223;BME280;5668;52.012;8.724;2023-06-19T02:32:11;99578.84;;;24.60;46.69
11223;BME280;5668;52.012;8.724;2023-06-19T02:34:38;99574.84;;;24.51;47.04
11223;BME280;5668;52.012;8.724;2023-06-19T02:37:06;99567.56;;;24.40;47.93
11223;BME280;5668;52.012;8.724;2023-06-19T02:39:34;99572.53;;;24.29;48.17
11223;BME280;5668;52.012;8.724;2023-06-19T02:42:01;99568.06;;;24.23;48.10
11223;BME280;5668;52.012;8.724;2023-06-19T02:44:28;99574.81;;;24.19;48.81
11223;BME280;5668;52.012;8.724;2023-06-19T02:46:55;99577.88;;;24.16;48.50
11223;BME280;5668;52.012;8.724;2023-06-19T02:49:24;99581.56;;;24.15;48.83
11223;BME280;5668;52.012;8.724;2023-06-19T02:51:51;99579.94;;;24.21;48.52
11223;BME280;5668;52.012;8.724;2023-06-19T02:54:18;99575.22;;;24.23;48.28
11223;BME280;5668;52.012;8.724;2023-06-19T02:56:45;99562.75;;;24.23;48.08
11223;BME280;5668;52.012;8.724;2023-06-19T02:59:13;99569.31;;;24.21;48.48
11223;BME280;5668;52.012;8.724;2023-06-19T03:01:40;99574.22;;;24.17;48.23
11223;BME280;5668;52.012;8.724;2023-06-19T03:04:07;99571.97;;;24.14;48.32
11223;BME280;5668;52.012;8.724;2023-06-19T03:06:36;99568.28;;;24.15;48.38
11223;BME280;5668;52.012;8.724;2023-06-19T03:09:06;99574.63;;;24.14;48.82
11223;BME280;5668;52.012;8.724;2023-06-19T03:11:38;99570.94;;;24.15;48.92
11223;BME280;5668;52.012;8.724;2023-06-19T03:14:05;99570.75;;;24.17;49.09
11223;BME280;5668;52.012;8.724;2023-06-19T03:16:34;99564.00;;;24.21;49.08
11223;BME280;5668;52.012;8.724;2023-06-19T03:19:01;99581.97;;;24.25;49.15
11223;BME280;5668;52.012;8.724;2023-06-19T03:21:28;99575.19;;;24.29;49.50
11223;BME280;5668;52.012;8.724;2023-06-19T03:23:57;99562.34;;;24.26;49.09
11223;BME280;5668;52.012;8.724;2023-06-19T03:26:24;99575.25;;;24.16;50.45
11223;BME280;5668;52.012;8.724;2023-06-19T03:28:52;99573.03;;;24.07;50.26
11223;BME280;5668;52.012;8.724;2023-06-19T03:31:19;99580.00;;;24.01;50.50
11223;BME280;5668;52.012;8.724;2023-06-19T03:33:46;99580.63;;;24.03;50.19
11223;BME280;5668;52.012;8.724;2023-06-19T03:36:14;99578.75;;;24.10;50.05
11223;BME280;5668;52.012;8.724;2023-06-19T03:38:41;99585.25;;;24.14;50.26
11223;BME280;5668;52.012;8.724;2023-06-19T03:41:10;99583.63;;;24.13;50.33
11223;BME280;5668;52.012;8.724;2023-06-19T03:43:37;99584.03;;;24.17;50.43
11223;BME280;5668;52.012;8.724;2023-06-19T03:46:05;99584.84;;;24.17;50.12
11223;BME280;5668;52.012;8.724;2023-06-19T03:48:32;99589.31;;;24.23;50.47
11223;BME280;5668;52.012;8.724;2023-06-19T03:50:59;99591.97;;;24.23;49.62
11223;BME280;5668;52.012;8.724;2023-06-19T03:53:27;99590.97;;;24.18;50.03
11223;BME280;5668;52.012;8.724;2023-06-19T03:55:55;99586.69;;;24.17;49.91
11223;BME280;5668;52.012;8.724;2023-06-19T03:58:23;99587.28;;;24.19;49.93
11223;BME280;5668;52.012;8.724;2023-06-19T04:00:51;99583.63;;;24.20;49.39
11223;BME280;5668;52.012;8.724;2023-06-19T04:03:18;99584.63;;;24.19;49.02
11223;BME280;5668;52.012;8.724;2023-06-19T04:05:46;99591.97;;;24.17;49.34
11223;BME280;5668;52.012;8.724;2023-06-19T04:08:13;99589.16;;;24.12;49.39
11223;BME280;5668;52.012;8.724;2023-06-19T04:10:40;99595.50;;;24.11;49.10
11223;BME280;5668;52.012;8.724;2023-06-19T04:13:13;99593.06;;;24.09;49.07
11223;BME280;5668;52.012;8.724;2023-06-19T04:15:43;99598.41;;;24.03;49.24
11223;BME280;5668;52.012;8.724;2023-06-19T04:18:11;99602.28;;;24.00;49.38
11223;BME280;5668;52.012;8.724;2023-06-19T04:20:38;99602.72;;;23.97;49.99
11223;BME280;5668;52.012;8.724;2023-06-19T04:23:06;99600.47;;;23.94;50.53
11223;BME280;5668;52.012;8.724;2023-06-19T04:25:33;99603.97;;;23.88;51.29
11223;BME280;5668;52.012;8.724;2023-06-19T04:28:00;99602.75;;;23.90;50.89
11223;BME280;5668;52.012;8.724;2023-06-19T04:30:29;99599.44;;;23.95;50.07
11223;BME280;5668;52.012;8.724;2023-06-19T04:32:58;99589.41;;;24.04;50.53
11223;BME280;5668;52.012;8.724;2023-06-19T04:35:26;99593.25;;;24.08;52.02
11223;BME280;5668;52.012;8.724;2023-06-19T04:37:53;99593.06;;;24.09;52.10
11223;BME280;5668;52.012;8.724;2023-06-19T04:40:21;99596.69;;;24.15;51.34
11223;BME280;5668;52.012;8.724;2023-06-19T04:42:51;99602.22;;;24.20;51.00
11223;BME280;5668;52.012;8.724;2023-06-19T04:45:19;99599.75;;;24.25;50.86
11223;BME280;5668;52.012;8.724;2023-06-19T04:47:47;99602.19;;;24.26;51.24
11223;BME280;5668;52.012;8.724;2023-06-19T04:50:16;99598.50;;;24.27;51.62
11223;BME280;5668;52.012;8.724;2023-06-19T04:52:44;99602.34;;;24.32;51.45
11223;BME280;5668;52.012;8.724;2023-06-19T04:55:11;99609.09;;;24.34;51.23
11223;BME280;5668;52.012;8.724;2023-06-19T04:57:38;99610.50;;;24.37;50.70
11223;BME280;5668;52.012;8.724;2023-06-19T05:00:07;99601.69;;;24.43;50.43
11223;BME280;5668;52.012;8.724;2023-06-19T05:02:36;99606.56;;;24.46;50.43
11223;BME280;5668;52.012;8.724;2023-06-19T05:05:03;99609.63;;;24.49;50.82
11223;BME280;5668;52.012;8.724;2023-06-19T05:07:32;99619.22;;;24.50;50.30
11223;BME280;5668;52.012;8.724;2023-06-19T05:09:59;99620.59;;;24.53;50.58
11223;BME280;5668;52.012;8.724;2023-06-19T05:12:27;99623.88;;;24.55;50.74
11223;BME280;5668;52.012;8.724;2023-06-19T05:14:54;99632.44;;;24.57;50.94
11223;BME280;5668;52.012;8.724;2023-06-19T05:17:21;99626.69;;;24.60;50.28
11223;BME280;5668;52.012;8.724;2023-06-19T05:19:48;99638.34;;;24.59;50.69
11223;BME280;5668;52.012;8.724;2023-06-19T05:22:16;99648.56;;;24.62;50.17
11223;BME280;5668;52.012;8.724;2023-06-19T05:24:46;99649.16;;;24.64;50.24
11223;BME280;5668;52.012;8.724;2023-06-19T05:27:13;99660.16;;;24.67;50.30
11223;BME280;5668;52.012;8.724;2023-06-19T05:29:40;99662.63;;;24.69;50.50
11223;BME280;5668;52.012;8.724;2023-06-19T05:32:07;99668.53;;;24.71;50.41
11223;BME280;5668;52.012;8.724;2023-06-19T05:34:35;99664.84;;;24.72;51.06
11223;BME280;5668;52.012;8.724;2023-06-19T05:37:02;99676.06;;;24.74;51.39
11223;BME280;5668;52.012;8.724;2023-06-19T05:39:29;99671.38;;;24.76;51.56
11223;BME280;5668;52.012;8.724;2023-06-19T05:41:58;99671.75;;;24.80;51.24
11223;BME280;5668;52.012;8.724;2023-06-19T05:44:25;99671.09;;;24.84;51.49
11223;BME280;5668;52.012;8.724;2023-06-19T05:46:52;99681.91;;;24.89;51.33
11223;BME280;5668;52.012;8.724;2023-06-19T05:49:19;99672.72;;;24.92;51.79
11223;BME280;5668;52.012;8.724;2023-06-19T05:51:47;99679.47;;;24.94;51.73
11223;BME280;5668;52.012;8.724;2023-06-19T05:54:14;99677.16;;;24.98;52.56
11223;BME280;5668;52.012;8.724;2023-06-19T05:56:44;99675.13;;;25.00;52.32
11223;BME280;5668;52.012;8.724;2023-06-19T05:59:12;99685.34;;;25.03;52.79
11223;BME280;5668;52.012;8.724;2023-06-19T06:01:40;99683.84;;;25.07;53.17
11223;BME280;5668;52.012;8.724;2023-06-19T06:04:07;99685.28;;;25.10;53.16
11223;BME280;5668;52.012;8.724;2023-06-19T06:06:36;99699.97;;;25.12;53.47
11223;BME280;5668;52.012;8.724;2023-06-19T06:09:03;99695.03;;;25.16;53.73
11223;BME280;5668;52.012;8.724;2023-06-19T06:11:30;99692.53;;;25.21;53.96
11223;BME280;5668;52.012;8.724;2023-06-19T06:13:58;99706.44;;;25.23;54.34
11223;BME280;5668;52.012;8.724;2023-06-19T06:16:26;99707.47;;;25.22;54.40
11223;BME280;5668;52.012;8.724;2023-06-19T06:18:54;99709.09;;;25.23;54.45
11223;BME280;5668;52.012;8.724;2023-06-19T06:21:21;99716.66;;;25.26;54.55
11223;BME280;5668;52.012;8.724;2023-06-19T06:23:48;99714.78;;;25.26;54.69
11223;BME280;5668;52.012;8.724;2023-06-19T06:26:15;99723.38;;;25.28;54.85
11223;BME280;5668;52.012;8.724;2023-06-19T06:28:43;99723.78;;;25.32;54.96
11223;BME280;5668;52.012;8.724;2023-06-19T06:31:10;99729.66;;;25.34;55.40
11223;BME280;5668;52.012;8.724;2023-06-19T06:33:38;99727.63;;;25.36;55.57
11223;BME280;5668;52.012;8.724;2023-06-19T06:36:06;99736.22;;;25.38;55.65
11223;BME280;5668;52.012;8.724;2023-06-19T06:38:33;99734.97;;;25.40;55.80
11223;BME280;5668;52.012;8.724;2023-06-19T06:41:00;99737.63;;;25.40;55.80
11223;BME280;5668;52.012;8.724;2023-06-19T06:43:27;99736.53;;;25.48;55.86
11223;BME280;5668;52.012;8.724;2023-06-19T06:45:54;99734.84;;;25.54;55.75
11223;BME280;5668;52.012;8.724;2023-06-19T06:48:22;99733.56;;;25.56;56.25
11223;BME280;5668;52.012;8.724;2023-06-19T06:50:50;99743.81;;;25.59;56.17
11223;BME280;5668;52.012;8.724;2023-06-19T06:53:24;99742.94;;;25.65;56.47
11223;BME280;5668;52.012;8.724;2023-06-19T06:55:54;99752.28;;;25.74;56.79
11223;BME280;5668;52.012;8.724;2023-06-19T06:58:21;99753.03;;;25.81;56.72
11223;BME280;5668;52.012;8.724;2023-06-19T07:00:48;99753.84;;;25.82;56.08
11223;BME280;5668;52.012;8.724;2023-06-19T07:03:17;99753.50;;;25.78;56.39
11223;BME280;5668;52.012;8.724;2023-06-19T07:05:44;99747.72;;;25.81;56.64
11223;BME280;5668;52.012;8.724;2023-06-19T07:08:13;99749.06;;;25.91;56.68
11223;BME280;5668;52.012;8.724;2023-06-19T07:10:40;99751.44;;;25.99;56.58
11223;BME280;5668;52.012;8.724;2023-06-19T07:13:07;99758.13;;;26.08;56.56
11223;BME280;5668;52.012;8.724;2023-06-19T07:15:34;99757.22;;;26.14;55.88
11223;BME280;5668;52.012;8.724;2023-06-19T07:18:01;99762.09;;;26.17;55.94
11223;BME280;5668;52.012;8.724;2023-06-19T07:20:29;99758.94;;;26.27;55.70
11223;BME280;5668;52.012;8.724;2023-06-19T07:22:56;99762.81;;;26.24;55.54
11223;BME280;5668;52.012;8.724;2023-06-19T07:25:24;99759.53;;;26.29;55.49
11223;BME280;5668;52.012;8.724;2023-06-19T07:27:52;99760.72;;;26.33;55.64
11223;BME280;5668;52.012;8.724;2023-06-19T07:30:19;99763.16;;;26.34;55.61
11223;BME280;5668;52.012;8.724;2023-06-19T07:32:46;99772.72;;;26.42;55.80
11223;BME280;5668;52.012;8.724;2023-06-19T07:35:14;99777.53;;;26.51;55.91
11223;BME280;5668;52.012;8.724;2023-06-19T07:37:41;99771.06;;;26.59;55.82
11223;BME280;5668;52.012;8.724;2023-06-19T07:40:11;99775.28;;;26.67;55.83
11223;BME280;5668;52.012;8.724;2023-06-19T07:42:40;99771.72;;;26.73;55.29
11223;BME280;5668;52.012;8.724;2023-06-19T07:45:08;99772.31;;;26.75;55.18
11223;BME280;5668;52.012;8.724;2023-06-19T07:47:36;99770.88;;;26.72;54.94
11223;BME280;5668;52.012;8.724;2023-06-19T07:50:05;99773.78;;;26.71;55.14
11223;BME280;5668;52.012;8.724;2023-06-19T07:52:33;99771.78;;;26.66;54.98
11223;BME280;5668;52.012;8.724;2023-06-19T07:55:01;99780.44;;;26.62;55.00
11223;BME280;5668;52.012;8.724;2023-06-19T07:57:28;99779.41;;;26.63;55.31
11223;BME280;5668;52.012;8.724;2023-06-19T07:59:56;99775.28;;;26.67;55.02
11223;BME280;5668;52.012;8.724;2023-06-19T08:02:24;99782.00;;;26.69;54.78
11223;BME280;5668;52.012;8.724;2023-06-19T08:04:51;99780.00;;;26.65;54.60
11223;BME280;5668;52.012;8.724;2023-06-19T08:07:18;99793.22;;;26.59;54.64
11223;BME280;5668;52.012;8.724;2023-06-19T08:09:45;99784.47;;;26.52;54.47
11223;BME280;5668;52.012;8.724;2023-06-19T08:12:12;99793.06;;;26.54;55.03
11223;BME280;5668;52.012;8.724;2023-06-19T08:14:40;99793.78;;;26.62;55.04
11223;BME280;5668;52.012;8.724;2023-06-19T08:17:08;99795.19;;;26.64;54.80
11223;BME280;5668;52.012;8.724;2023-06-19T08:19:35;99796.00;;;26.65;54.50
11223;BME280;5668;52.012;8.724;2023-06-19T08:22:05;99795.28;;;26.57;54.06
11223;BME280;5668;52.012;8.724;2023-06-19T08:24:33;99794.69;;;26.55;54.13
11223;BME280;5668;52.012;8.724;2023-06-19T08:27:01;99794.13;;;26.53;54.48
11223;BME280;5668;52.012;8.724;2023-06-19T08:29:28;99804.00;;;26.46;54.33
11223;BME280;5668;52.012;8.724;2023-06-19T08:31:56;99810.84;;;26.42;54.49
11223;BME280;5668;52.012;8.724;2023-06-19T08:34:24;99805.72;;;26.41;54.81
11223;BME280;5668;52.012;8.724;2023-06-19T08:36:51;99810.63;;;26.44;54.66
11223;BME280;5668;52.012;8.724;2023-06-19T08:39:19;99813.06;;;26.45;54.87
11223;BME280;5668;52.012;8.724;2023-06-19T08:41:48;99812.00;;;26.46;54.75
11223;BME280;5668;52.012;8.724;2023-06-19T08:44:15;99814.53;;;26.41;55.16
11223;BME280;5668;52.012;8.724;2023-06-19T08:46:43;99809.06;;;26.36;54.91
11223;BME280;5668;52.012;8.724;2023-06-19T08:49:10;99805.91;;;26.94;53.25
11223;BME280;5668;52.012;8.724;2023-06-19T08:51:39;99809.78;;;26.62;54.35
11223;BME280;5668;52.012;8.724;2023-06-19T08:54:07;99825.22;;;26.59;54.78
11223;BME280;5668;52.012;8.724;2023-06-19T08:56:34;99820.78;;;26.53;54.90
11223;BME280;5668;52.012;8.724;2023-06-19T08:59:12;99826.88;;;26.54;55.14
11223;BME280;5668;52.012;8.724;2023-06-19T09:01:45;99830.84;;;26.51;55.08
11223;BME280;5668;52.012;8.724;2023-06-19T09:04:18;99833.50;;;26.51;54.76
11223;BME280;5668;52.012;8.724;2023-06-19T09:06:52;99836.53;;;26.55;54.79
11223;BME280;5668;52.012;8.724;2023-06-19T09:09:20;99845.03;;;26.64;54.75
11223;BME280;5668;52.012;8.724;2023-06-19T09:11:58;99844.75;;;26.72;54.78
11223;BME280;5668;52.012;8.724;2023-06-19T09:14:32;99835.94;;;26.71;53.95
11223;BME280;5668;52.012;8.724;2023-06-19T09:17:00;99843.72;;;26.73;53.77
11223;BME280;5668;52.012;8.724;2023-06-19T09:19:27;99834.59;;;26.80;53.84
11223;BME280;5668;52.012;8.724;2023-06-19T09:22:01;99837.69;;;26.77;53.34
11223;BME280;5668;52.012;8.724;2023-06-19T09:24:35;99844.38;;;26.68;53.43
11223;BME280;5668;52.012;8.724;2023-06-19T09:27:07;99850.97;;;26.66;53.36
11223;BME280;5668;52.012;8.724;2023-06-19T09:29:37;99844.44;;;26.62;53.19
11223;BME280;5668;52.012;8.724;2023-06-19T09:32:15;99853.94;;;26.57;52.48
11223;BME280;5668;52.012;8.724;2023-06-19T09:34:42;99856.91;;;26.49;52.45
11223;BME280;5668;52.012;8.724;2023-06-19T09:37:11;99857.31;;;26.46;52.41
11223;BME280;5668;52.012;8.724;2023-06-19T09:39:39;99858.38;;;26.45;52.53
11223;BME280;5668;52.012;8.724;2023-06-19T09:42:09;99858.38;;;26.45;52.56
11223;BME280;5668;52.012;8.724;2023-06-19T09:44:40;99861.88;;;26.46;52.84
11223;BME280;5668;52.012;8.724;2023-06-19T09:47:14;99855.72;;;26.45;53.07
11223;BME280;5668;52.012;8.724;2023-06-19T09:49:49;99850.53;;;26.50;53.27
11223;BME280;5668;52.012;8.724;2023-06-19T09:52:19;99860.44;;;26.62;53.64
11223;BME280;5668;52.012;8.724;2023-06-19T09:54:48;99860.75;;;26.72;53.82
11223;BME280;5668;52.012;8.724;2023-06-19T09:57:16;99855.31;;;26.78;53.47
11223;BME280;5668;52.012;8.724;2023-06-19T09:59:47;99856.88;;;26.86;53.17
11223;BME280;5668;52.012;8.724;2023-06-19T10:02:15;99862.97;;;26.93;53.84
11223;BME280;5668;52.012;8.724;2023-06-19T10:04:44;99869.50;;;26.97;52.98
11223;BME280;5668;52.012;8.724;2023-06-19T10:07:18;99867.78;;;27.03;52.92
11223;BME280;5668;52.012;8.724;2023-06-19T10:10:02;99871.88;;;27.05;52.02
11223;BME280;5668;52.012;8.724;2023-06-19T10:12:36;99873.50;;;27.06;52.25
11223;BME280;5668;52.012;8.724;2023-06-19T10:15:16;99873.50;;;27.06;52.56
11223;BME280;5668;52.012;8.724;2023-06-19T10:17:45;99876.72;;;27.08;51.91
11223;BME280;5668;52.012;8.724;2023-06-19T10:20:28;99883.09;;;27.07;51.36
11223;BME280;5668;52.012;8.724;2023-06-19T10:23:02;99879.72;;;27.00;51.02
11223;BME280;5668;52.012;8.724;2023-06-19T10:25:32;99877.94;;;26.94;51.51
11223;BME280;5668;52.012;8.724;2023-06-19T10:28:00;99878.06;;;27.17;50.41
11223;BME280;5668;52.012;8.724;2023-06-19T10:30:27;99888.00;;;26.92;51.32
11223;BME280;5668;52.012;8.724;2023-06-19T10:32:56;99879.63;;;26.88;51.28
11223;BME280;5668;52.012;8.724;2023-06-19T10:35:24;99880.81;;;26.92;51.34
11223;BME280;5668;52.012;8.724;2023-06-19T10:37:51;99887.72;;;27.00;51.82
11223;BME280;5668;52.012;8.724;2023-06-19T10:40:21;99879.28;;;27.03;51.64
11223;BME280;5668;52.012;8.724;2023-06-19T10:42:48;99877.94;;;27.12;51.81
11223;BME280;5668;52.012;8.724;2023-06-19T10:45:15;99879.09;;;27.16;52.37
11223;BME280;5668;52.012;8.724;2023-06-19T10:47:43;99880.50;;;27.19;52.21
11223;BME280;5668;52.012;8.724;2023-06-19T10:50:12;99883.53;;;27.22;51.87
11223;BME280;5668;52.012;8.724;2023-06-19T10:52:42;99885.16;;;27.23;51.19
11223;BME280;5668;52.012;8.724;2023-06-19T10:55:11;99890.28;;;27.25;51.24
11223;BME280;5668;52.012;8.724;2023-06-19T10:57:40;99888.41;;;27.25;51.37
11223;BME280;5668;52.012;8.724;2023-06-19T11:00:21;99884.44;;;27.16;50.60
11223;BME280;5668;52.012;8.724;2023-06-19T11:02:49;99888.00;;;27.10;50.49
11223;BME280;5668;52.012;8.724;2023-06-19T11:05:19;99886.50;;;27.14;51.12
11223;BME280;5668;52.012;8.724;2023-06-19T11:07:51;99888.13;;;27.15;50.69
11223;BME280;5668;52.012;8.724;2023-06-19T11:10:20;99884.81;;;27.20;50.80
11223;BME280;5668;52.012;8.724;2023-06-19T11:12:52;99881.00;;;27.27;51.05
11223;BME280;5668;52.012;8.724;2023-06-19T11:15:27;99873.56;;;27.29;51.13
11223;BME280;5668;52.012;8.724;2023-06-19T11:17:54;99876.84;;;27.31;50.81
11223;BME280;5668;52.012;8.724;2023-06-19T11:20:22;99884.97;;;27.36;51.01
11223;BME280;5668;52.012;8.724;2023-06-19T11:22:55;99879.28;;;27.33;50.58
11223;BME280;5668;52.012;8.724;2023-06-19T11:25:22;99885.56;;;27.39;51.07
11223;BME280;5668;52.012;8.724;2023-06-19T11:27:51;99890.25;;;27.43;50.60
11223;BME280;5668;52.012;8.724;2023-06-19T11:30:30;99884.91;;;27.43;50.83
11223;BME280;5668;52.012;8.724;2023-06-19T11:32:58;99887.78;;;27.42;50.48
11223;BME280;5668;52.012;8.724;2023-06-19T11:35:25;99895.78;;;27.42;50.25
11223;BME280;5668;52.012;8.724;2023-06-19T11:38:00;99899.28;;;27.42;50.64
11223;BME280;5668;52.012;8.724;2023-06-19T11:40:27;99889.75;;;27.46;50.66
11223;BME280;5668;52.012;8.724;2023-06-19T11:42:57;99886.16;;;27.41;50.69
11223;BME280;5668;52.012;8.724;2023-06-19T11:45:24;99891.50;;;27.41;50.66
11223;BME280;5668;52.012;8.724;2023-06-19T11:47:51;99899.94;;;27.38;50.78
11223;BME280;5668;52.012;8.724;2023-06-19T11:50:27;99900.63;;;27.33;50.99
11223;BME280;5668;52.012;8.724;2023-06-19T11:52:54;99900.72;;;27.26;51.16
11223;BME280;5668;52.012;8.724;2023-06-19T11:55:23;99901.63;;;27.20;51.73
11223;BME280;5668;52.012;8.724;2023-06-19T11:57:50;99906.97;;;27.20;51.91
11223;BME280;5668;52.012;8.724;2023-06-19T12:00:19;99904.31;;;27.20;52.22
11223;BME280;5668;52.012;8.724;2023-06-19T12:02:46;99898.88;;;27.27;52.04
11223;BME280;5668;52.012;8.724;2023-06-19T12:05:14;99892.03;;;27.31;52.61
11223;BME280;5668;52.012;8.724;2023-06-19T12:07:41;99892.75;;;27.38;52.75
11223;BME280;5668;52.012;8.724;2023-06-19T12:10:11;99892.09;;;27.43;52.75
11223;BME280;5668;52.012;8.724;2023-06-19T12:12:39;99897.72;;;27.53;54.02
11223;BME280;5668;52.012;8.724;2023-06-19T12:15:07;99892.97;;;27.55;53.32
11223;BME280;5668;52.012;8.724;2023-06-19T12:17:35;99893.91;;;27.60;53.04
11223;BME280;5668;52.012;8.724;2023-06-19T12:20:05;99893.69;;;27.62;52.36
11223;BME280;5668;52.012;8.724;2023-06-19T12:22:35;99894.03;;;27.65;51.74
11223;BME280;5668;52.012;8.724;2023-06-19T12:25:02;99888.94;;;27.64;51.28
11223;BME280;5668;52.012;8.724;2023-06-19T12:27:30;99886.25;;;27.64;50.98
11223;BME280;5668;52.012;8.724;2023-06-19T12:29:57;99891.13;;;27.67;51.19
11223;BME280;5668;52.012;8.724;2023-06-19T12:32:24;99890.91;;;27.68;51.45
11223;BME280;5668;52.012;8.724;2023-06-19T12:34:53;99877.91;;;27.72;51.36
11223;BME280;5668;52.012;8.724;2023-06-19T12:37:21;99886.03;;;27.77;50.81
11223;BME280;5668;52.012;8.724;2023-06-19T12:39:48;99883.50;;;27.82;51.08
11223;BME280;5668;52.012;8.724;2023-06-19T12:42:16;99885.25;;;27.88;50.64
11223;BME280;5668;52.012;8.724;2023-06-19T12:44:43;99887.56;;;27.85;49.69
11223;BME280;5668;52.012;8.724;2023-06-19T12:47:11;99895.94;;;27.88;49.29
11223;BME280;5668;52.012;8.724;2023-06-19T12:49:38;99880.38;;;27.97;50.86
11223;BME280;5668;52.012;8.724;2023-06-19T12:52:08;99889.34;;;28.02;51.39
11223;BME280;5668;52.012;8.724;2023-06-19T12:54:35;99892.13;;;28.07;50.56
11223;BME280;5668;52.012;8.724;2023-06-19T12:57:03;99889.34;;;28.14;49.49
11223;BME280;5668;52.012;8.724;2023-06-19T12:59:30;99886.66;;;28.14;48.71
11223;BME280;5668;52.012;8.724;2023-06-19T13:01:58;99882.53;;;28.18;48.46
11223;BME280;5668;52.012;8.724;2023-06-19T13:04:25;99881.38;;;28.26;48.41
11223;BME280;5668;52.012;8.724;2023-06-19T13:06:53;99880.31;;;28.27;47.77
11223;BME280;5668;52.012;8.724;2023-06-19T13:09:21;99884.38;;;28.29;46.94
11223;BME280;5668;52.012;8.724;2023-06-19T13:11:48;99884.38;;;28.41;47.74
11223;BME280;5668;52.012;8.724;2023-06-19T13:14:16;99884.03;;;28.49;47.46
11223;BME280;5668;52.012;8.724;2023-06-19T13:16:43;99884.22;;;28.59;47.37